Glorysun — V7NS9 — position and weather

sailwx.info

Track history (hours):
 
Tides and Currents Weather Stations Pressure Air Temp Water Temp Dewpoint Dewpoint Depression Visibility Wind Speed Wind Dir Waves Ship Positions

Glorysun

Last reported at 2018-Jun-22 23:35 UTC. Time now 2018-Jun-24 18:47 UTC.
Position N 09°36' W 079°56'.

Length 234 m; draft 8.4 m.

Type: Cargo ship. MMSI: 538003012.

Date/timePositionNaut miles runAvg speedWind from/ knotsBaromVisibWave heightAir tempDewpointWater temp
2018-Jun-22 23:35N 09°36' W 079°56'111.6
2018-Jun-22 23:30N 09°35' W 079°56'611.4
2018-Jun-22 22:59N 09°29' W 079°55'4 8.8
2018-Jun-22 22:30N 09°25' W 079°55'5 9.9
2018-Jun-22 22:00N 09°20' W 079°55'3 6.4
2018-Jun-22 21:30N 09°17' W 079°55'0 0.4
2018-Jun-22 21:00N 09°16' W 079°55'0 0.5
2018-Jun-22 20:30N 09°16' W 079°55'0 0.6
2018-Jun-22 20:00N 09°16' W 079°55'1 2.2
2018-Jun-22 19:30N 09°15' W 079°55'  
Track history (hours):
 
Tides and Currents Weather Stations Pressure Air Temp Water Temp Dewpoint Dewpoint Depression Visibility Wind Speed Wind Dir Waves Ship Positions

Glorysun

Last reported at 2018-Jun-22 23:35 UTC. Time now 2018-Jun-24 18:47 UTC.
Position N 09°36' W 079°56'.

Length 234 m; draft 8.4 m.

Type: Cargo ship. MMSI: 538003012.

Date/timePositionNaut miles runAvg speedWind from/ knotsBaromVisibWave heightAir tempDewpointWater temp
2018-Jun-22 23:35N 09°36' W 079°56'111.6
2018-Jun-22 23:30N 09°35' W 079°56'611.4
2018-Jun-22 22:59N 09°29' W 079°55'4 8.8
2018-Jun-22 22:30N 09°25' W 079°55'5 9.9
2018-Jun-22 22:00N 09°20' W 079°55'3 6.4
2018-Jun-22 21:30N 09°17' W 079°55'0 0.4
2018-Jun-22 21:00N 09°16' W 079°55'0 0.5
2018-Jun-22 20:30N 09°16' W 079°55'0 0.6
2018-Jun-22 20:00N 09°16' W 079°55'1 2.2
2018-Jun-22 19:30N 09°15' W 079°55'  

Dump ship's entire track history